createdAt,value
2019-04-25T00:00:16.268Z,21.97
2019-04-25T00:02:51.248Z,22.10
2019-04-25T00:05:22.031Z,26.68
2019-04-25T00:08:01.530Z,19.95
2019-04-25T00:10:33.918Z,21.73
2019-04-25T00:13:08.940Z,21.55
2019-04-25T00:15:48.650Z,21.25
2019-04-25T00:18:18.622Z,26.02
2019-04-25T00:20:52.179Z,22.45
2019-04-25T00:23:25.378Z,23.22
2019-04-25T00:26:01.363Z,21.48
2019-04-25T00:28:32.782Z,21.70
2019-04-25T00:31:08.220Z,22.77
2019-04-25T00:33:41.966Z,26.90
2019-04-25T00:38:50.286Z,22.20
2019-04-25T00:41:34.072Z,25.40
2019-04-25T00:44:07.389Z,25.97
2019-04-25T00:46:52.505Z,20.85
2019-04-25T00:49:16.887Z,25.45
2019-04-25T00:51:47.131Z,19.20
2019-04-25T00:54:24.360Z,24.95
2019-04-25T00:56:55.546Z,26.23
2019-04-25T00:59:33.179Z,24.43
2019-04-25T01:02:07.780Z,23.70
2019-04-25T01:04:37.797Z,25.02
2019-04-25T01:07:09.246Z,18.67
2019-04-25T01:09:43.459Z,26.27
2019-04-25T01:12:16.178Z,26.60
2019-04-25T01:14:59.391Z,25.43
2019-04-25T01:17:34.422Z,23.92
2019-04-25T01:20:11.261Z,22.27
2019-04-25T01:25:20.580Z,22.85
2019-04-25T01:27:51.806Z,23.80
2019-04-25T01:30:24.571Z,22.52
2019-04-25T01:33:04.051Z,30.08
2019-04-25T01:35:36.918Z,29.65
2019-04-25T01:38:18.194Z,24.87
2019-04-25T01:40:57.594Z,26.05
2019-04-25T01:43:35.330Z,25.35
2019-04-25T01:46:14.631Z,26.02
2019-04-25T01:48:44.764Z,24.92
2019-04-25T01:51:17.950Z,28.47
2019-04-25T01:53:49.405Z,29.65
2019-04-25T01:56:23.004Z,32.03
2019-04-25T01:58:55.976Z,28.40
2019-04-25T02:01:31.777Z,23.92
2019-04-25T02:04:03.558Z,29.77
2019-04-25T02:06:37.367Z,26.80
2019-04-25T02:09:10.074Z,25.25
2019-04-25T02:11:58.878Z,24.67
2019-04-25T02:14:39.141Z,27.30
2019-04-25T02:17:16.587Z,27.95
2019-04-25T02:19:51.961Z,27.73
2019-04-25T02:22:24.208Z,26.93
2019-04-25T02:27:49.578Z,27.82
2019-04-25T02:30:26.577Z,27.77
2019-04-25T02:33:00.932Z,25.43
2019-04-25T02:35:34.736Z,27.52
2019-04-25T02:38:08.796Z,23.32
2019-04-25T02:40:46.094Z,38.85
2019-04-25T02:43:16.234Z,38.50
2019-04-25T02:45:50.486Z,39.80
2019-04-25T02:48:24.927Z,36.48
2019-04-25T02:51:04.280Z,38.17
2019-04-25T02:53:38.120Z,37.98
2019-04-25T02:56:29.420Z,34.83
2019-04-25T02:58:45.128Z,38.73
2019-04-25T03:01:22.331Z,32.45
2019-04-25T03:03:54.351Z,29.32
2019-04-25T03:06:30.875Z,30.62
2019-04-25T03:09:09.322Z,27.52
2019-04-25T03:11:47.726Z,38.75
2019-04-25T03:14:20.589Z,34.05
2019-04-25T03:16:54.422Z,32.00
2019-04-25T03:19:40.395Z,38.75
2019-04-25T03:22:18.845Z,34.08
2019-04-25T03:24:54.751Z,32.50
2019-04-25T03:27:29.977Z,30.37
2019-04-25T03:30:01.786Z,31.65
2019-04-25T03:32:39.715Z,29.77
2019-04-25T03:35:10.167Z,35.38
2019-04-25T03:37:45.972Z,39.25
2019-04-25T03:40:19.553Z,32.08
2019-04-25T03:42:54.282Z,34.50
2019-04-25T03:45:58.169Z,34.03
2019-04-25T03:48:25.083Z,30.05
2019-04-25T03:51:06.623Z,30.70
2019-04-25T03:53:45.856Z,35.55
2019-04-25T03:56:22.742Z,31.82
2019-04-25T03:58:55.969Z,31.55
2019-04-25T04:01:27.661Z,35.13
2019-04-25T04:04:23.733Z,28.60
2019-04-25T04:07:00.763Z,33.73
2019-04-25T04:09:39.300Z,32.23
2019-04-25T04:12:14.488Z,60.52
2019-04-25T04:14:48.434Z,50.00
2019-04-25T04:17:26.467Z,53.42
2019-04-25T04:20:01.010Z,43.63
2019-04-25T04:22:41.442Z,43.30
2019-04-25T04:25:21.116Z,39.30
2019-04-25T04:27:51.716Z,48.02
2019-04-25T04:30:22.048Z,47.83
2019-04-25T04:33:22.168Z,60.40
2019-04-25T04:35:44.170Z,79.17
2019-04-25T04:38:16.359Z,74.07
2019-04-25T04:40:46.427Z,63.55
2019-04-25T04:43:16.606Z,49.20
2019-04-25T04:45:46.804Z,45.28
2019-04-25T04:48:16.783Z,51.58
2019-04-25T04:50:46.753Z,31.12
2019-04-25T04:53:17.226Z,32.23
2019-04-25T04:55:47.719Z,29.42
2019-04-25T04:58:17.943Z,28.75
2019-04-25T05:00:49.349Z,26.37
2019-04-25T05:03:27.897Z,26.37
2019-04-25T05:06:11.758Z,45.38
2019-04-25T05:08:43.578Z,36.98
2019-04-25T05:11:15.443Z,26.73
2019-04-25T05:13:45.496Z,26.87
2019-04-25T05:16:16.279Z,25.55
2019-04-25T05:18:46.589Z,26.02
2019-04-25T05:21:17.148Z,26.75
2019-04-25T05:23:47.486Z,39.00
2019-04-25T05:26:17.486Z,30.57
2019-04-25T05:28:47.651Z,34.27
2019-04-25T05:31:19.600Z,32.78
2019-04-25T05:33:49.701Z,44.98
2019-04-25T05:36:20.058Z,34.83
2019-04-25T05:38:51.314Z,28.55
2019-04-25T05:41:24.406Z,31.93
2019-04-25T05:43:54.902Z,35.28
2019-04-25T05:46:26.055Z,27.00
2019-04-25T05:48:56.919Z,26.25
2019-04-25T05:51:27.050Z,28.20
2019-04-25T05:53:57.222Z,26.15
2019-04-25T05:56:28.305Z,51.15
2019-04-25T05:58:58.684Z,22.52
2019-04-25T06:01:30.144Z,30.20
2019-04-25T06:04:00.467Z,22.62
2019-04-25T06:06:30.785Z,28.02
2019-04-25T06:09:17.725Z,38.63
2019-04-25T06:12:05.967Z,30.17
2019-04-25T06:14:36.255Z,38.35
2019-04-25T06:17:08.921Z,32.70
2019-04-25T06:19:40.772Z,27.87
2019-04-25T06:22:15.466Z,26.57
2019-04-25T06:24:47.113Z,26.87
2019-04-25T06:27:18.675Z,23.77
2019-04-25T06:29:58.210Z,38.65
2019-04-25T06:32:24.269Z,31.17
2019-04-25T06:34:54.699Z,21.33
2019-04-25T06:37:25.876Z,52.45
2019-04-25T06:39:57.458Z,31.15
2019-04-25T06:42:27.473Z,24.45
2019-04-25T06:45:08.191Z,19.57
2019-04-25T06:47:55.141Z,43.10
2019-04-25T06:50:26.221Z,37.75
2019-04-25T06:52:56.798Z,25.05
2019-04-25T06:55:27.311Z,22.32
2019-04-25T06:58:09.080Z,27.20
2019-04-25T07:00:34.165Z,28.15
2019-04-25T07:03:01.840Z,26.10
2019-04-25T07:05:35.758Z,20.48
2019-04-25T07:08:03.652Z,36.93
2019-04-25T07:10:34.855Z,25.52
2019-04-25T07:13:05.166Z,24.18
2019-04-25T07:15:35.385Z,40.20
2019-04-25T07:18:05.591Z,24.32
2019-04-25T07:20:35.646Z,60.52
2019-04-25T07:23:05.736Z,29.55
2019-04-25T07:25:37.550Z,22.82
2019-04-25T07:28:24.076Z,23.62
2019-04-25T07:30:54.779Z,23.18
2019-04-25T07:33:41.424Z,61.90
2019-04-25T07:36:11.542Z,30.88
2019-04-25T07:38:41.605Z,19.95
2019-04-25T07:41:14.724Z,26.65
2019-04-25T07:43:44.918Z,32.17
2019-04-25T07:46:15.299Z,27.80
2019-04-25T07:48:45.412Z,21.23
2019-04-25T07:51:16.555Z,20.95
2019-04-25T07:53:46.738Z,27.98
2019-04-25T07:56:16.697Z,21.33
2019-04-25T07:58:52.199Z,21.93
2019-04-25T08:01:18.967Z,26.60
2019-04-25T08:03:48.870Z,30.62
2019-04-25T08:06:18.899Z,20.12
2019-04-25T08:08:49.385Z,21.73
2019-04-25T08:11:19.921Z,26.05
2019-04-25T08:13:54.547Z,22.70
2019-04-25T08:16:26.143Z,35.98
2019-04-25T08:18:57.222Z,42.33
2019-04-25T08:21:27.274Z,26.23
2019-04-25T08:23:58.499Z,21.37
2019-04-25T08:26:29.481Z,30.52
2019-04-25T08:29:00.215Z,17.80
2019-04-25T08:31:31.203Z,23.98
2019-04-25T08:34:03.590Z,33.28
2019-04-25T08:36:37.090Z,23.47
2019-04-25T08:41:37.335Z,34.00
2019-04-25T08:44:08.487Z,30.27
2019-04-25T08:46:39.458Z,25.55
2019-04-25T08:49:23.966Z,25.48
2019-04-25T08:51:55.964Z,24.57
2019-04-25T08:54:42.232Z,28.60
2019-04-25T08:57:13.914Z,26.50
2019-04-25T08:59:55.601Z,31.57
2019-04-25T09:02:27.419Z,62.83
2019-04-25T09:04:58.915Z,30.55
2019-04-25T09:07:28.993Z,20.23
2019-04-25T09:09:58.909Z,23.98
2019-04-25T09:12:29.260Z,26.57
2019-04-25T09:14:59.127Z,22.75
2019-04-25T09:17:29.017Z,22.82
2019-04-25T09:19:59.010Z,19.62
2019-04-25T09:22:29.038Z,22.58
2019-04-25T09:24:58.958Z,24.92
2019-04-25T09:27:30.087Z,21.87
2019-04-25T09:29:59.932Z,26.52
2019-04-25T09:32:29.843Z,28.57
2019-04-25T09:34:59.746Z,20.65
2019-04-25T09:37:29.748Z,20.88
2019-04-25T09:40:04.329Z,20.12
2019-04-25T09:42:35.577Z,15.10
2019-04-25T09:45:26.271Z,40.38
2019-04-25T09:47:57.615Z,22.67
2019-04-25T09:50:29.108Z,25.08
2019-04-25T09:52:59.082Z,23.85
2019-04-25T09:55:39.751Z,24.55
2019-04-25T09:58:11.608Z,24.87
2019-04-25T10:00:49.053Z,24.15
2019-04-25T10:03:18.964Z,21.65
2019-04-25T10:05:49.042Z,28.80
2019-04-25T10:08:19.003Z,24.10
2019-04-25T10:10:49.018Z,24.23
2019-04-25T10:13:18.961Z,19.62
2019-04-25T10:16:03.565Z,28.45
2019-04-25T10:18:34.128Z,28.35
2019-04-25T10:21:06.886Z,24.30
2019-04-25T10:23:38.173Z,23.02
2019-04-25T10:26:11.346Z,22.87
2019-04-25T10:28:43.713Z,24.07
2019-04-25T10:31:13.865Z,23.10
2019-04-25T10:33:46.662Z,22.95
2019-04-25T10:36:16.049Z,25.75
2019-04-25T10:39:01.393Z,21.30
2019-04-25T10:41:17.974Z,21.52
2019-04-25T10:43:48.366Z,26.73
2019-04-25T10:46:20.002Z,24.20
2019-04-25T10:48:49.919Z,24.50
2019-04-25T10:51:19.941Z,19.87
2019-04-25T10:53:49.955Z,22.50
2019-04-25T10:56:20.015Z,21.02
2019-04-25T10:58:49.961Z,21.23
2019-04-25T11:01:19.808Z,35.35
2019-04-25T11:03:55.618Z,21.85
2019-04-25T11:06:27.287Z,26.23
2019-04-25T11:08:57.462Z,28.67
2019-04-25T11:11:27.597Z,19.82
2019-04-25T11:13:58.472Z,32.70
2019-04-25T11:16:28.424Z,20.37
2019-04-25T11:18:58.447Z,28.00
2019-04-25T11:21:28.492Z,21.95
2019-04-25T11:23:58.413Z,24.85
2019-04-25T11:26:28.499Z,25.40
2019-04-25T11:28:58.653Z,25.27
2019-04-25T11:31:30.200Z,24.87
2019-04-25T11:34:00.244Z,32.10
2019-04-25T11:36:30.074Z,22.62
2019-04-25T11:39:01.797Z,20.23
2019-04-25T11:41:34.155Z,17.40
2019-04-25T11:44:06.533Z,26.85
2019-04-25T11:46:39.217Z,26.57
2019-04-25T11:49:08.556Z,20.92
2019-04-25T11:51:39.645Z,22.73
2019-04-25T11:54:09.773Z,24.20
2019-04-25T11:56:39.749Z,20.72
2019-04-25T11:59:09.894Z,24.35
2019-04-25T12:01:39.983Z,28.83
2019-04-25T12:04:10.155Z,21.52
2019-04-25T12:06:40.015Z,25.27
2019-04-25T12:09:10.047Z,30.68
2019-04-25T12:11:40.430Z,26.10
2019-04-25T12:14:10.354Z,28.73
2019-04-25T12:16:40.282Z,25.17
2019-04-25T12:19:10.250Z,27.60
2019-04-25T12:21:40.269Z,19.60
2019-04-25T12:24:10.398Z,28.07
2019-04-25T12:26:40.358Z,29.95
2019-04-25T12:29:10.359Z,25.43
2019-04-25T12:31:40.382Z,21.10
2019-04-25T12:34:10.744Z,30.40
2019-04-25T12:36:40.660Z,23.30
2019-04-25T12:39:10.642Z,39.70
2019-04-25T12:41:40.908Z,51.13
2019-04-25T12:44:22.869Z,30.50
2019-04-25T12:46:55.592Z,23.83
2019-04-25T12:49:25.650Z,23.10
2019-04-25T12:51:55.585Z,27.80
2019-04-25T12:54:25.487Z,23.60
2019-04-25T12:56:55.325Z,19.37
2019-04-25T12:59:25.303Z,38.40
2019-04-25T13:01:55.938Z,23.60
2019-04-25T13:04:25.865Z,27.65
2019-04-25T13:06:55.974Z,20.40
2019-04-25T13:09:25.884Z,25.00
2019-04-25T13:11:55.771Z,28.80
2019-04-25T13:14:25.789Z,36.73
2019-04-25T13:16:55.758Z,23.35
2019-04-25T13:19:26.531Z,21.20
2019-04-25T13:21:57.093Z,26.45
2019-04-25T13:24:27.840Z,24.55
2019-04-25T13:27:03.598Z,23.45
2019-04-25T13:29:47.591Z,25.70
2019-04-25T13:32:24.891Z,26.40
2019-04-25T13:34:57.151Z,36.75
2019-04-25T13:37:27.053Z,28.70
2019-04-25T13:39:58.117Z,16.17
2019-04-25T13:42:28.326Z,32.58
2019-04-25T13:44:58.353Z,33.35
2019-04-25T13:47:29.430Z,23.77
2019-04-25T13:49:59.921Z,25.12
2019-04-25T13:52:29.797Z,25.90
2019-04-25T13:54:59.708Z,22.07
2019-04-25T13:57:29.946Z,24.95
2019-04-25T14:00:00.055Z,28.77
2019-04-25T14:02:30.066Z,33.83
2019-04-25T14:04:59.985Z,25.77
2019-04-25T14:07:29.979Z,17.40
2019-04-25T14:09:59.805Z,33.60
2019-04-25T14:12:30.344Z,67.20
2019-04-25T14:15:00.377Z,16.57
2019-04-25T14:17:48.898Z,26.30
2019-04-25T14:20:26.518Z,23.73
2019-04-25T14:23:03.541Z,26.00
2019-04-25T14:25:35.530Z,24.37
2019-04-25T14:28:09.222Z,20.27
2019-04-25T14:30:43.439Z,20.45
2019-04-25T14:33:15.836Z,18.82
2019-04-25T14:35:45.925Z,20.17
2019-04-25T14:38:19.144Z,22.90
2019-04-25T14:40:50.831Z,24.12
2019-04-25T14:43:34.675Z,24.65
2019-04-25T14:46:05.340Z,90.22
2019-04-25T14:48:43.959Z,21.82
2019-04-25T14:51:24.222Z,27.82
2019-04-25T14:53:55.849Z,20.00
2019-04-25T14:56:32.419Z,26.07
2019-04-25T14:59:05.920Z,28.98
2019-04-25T15:01:44.504Z,20.90
2019-04-25T15:04:07.817Z,20.95
2019-04-25T15:06:37.759Z,21.57
2019-04-25T15:09:16.971Z,19.15
2019-04-25T15:11:47.508Z,21.27
2019-04-25T15:14:22.564Z,25.15
2019-04-25T15:16:53.917Z,31.00
2019-04-25T15:19:24.483Z,34.77
2019-04-25T15:21:58.554Z,48.28
2019-04-25T15:24:32.380Z,31.62
2019-04-25T15:27:02.742Z,24.10
2019-04-25T15:29:40.374Z,22.10
2019-04-25T15:32:14.187Z,57.20
2019-04-25T15:34:48.790Z,24.07
2019-04-25T15:37:26.746Z,21.15
2019-04-25T15:40:01.300Z,55.43
2019-04-25T15:42:52.100Z,31.73
2019-04-25T15:45:38.790Z,17.57
2019-04-25T15:48:13.936Z,28.65
2019-04-25T15:50:46.936Z,25.23
2019-04-25T15:53:18.426Z,23.52
2019-04-25T15:55:55.216Z,25.45
2019-04-25T15:58:35.261Z,79.05
2019-04-25T16:01:13.567Z,35.55
2019-04-25T16:03:52.433Z,26.95
2019-04-25T16:06:22.049Z,23.77
2019-04-25T16:08:58.145Z,25.27
2019-04-25T16:11:49.390Z,48.90
2019-04-25T16:14:33.403Z,27.37
2019-04-25T16:17:12.926Z,23.83
2019-04-25T16:19:54.544Z,27.30
2019-04-25T16:22:24.569Z,34.55
2019-04-25T16:24:57.238Z,27.58
2019-04-25T16:30:16.945Z,25.48
2019-04-25T16:32:44.207Z,31.90
2019-04-25T16:35:17.934Z,26.35
2019-04-25T16:37:57.142Z,40.88
2019-04-25T16:40:36.263Z,25.65
2019-04-25T16:43:16.129Z,23.45
2019-04-25T16:45:47.411Z,24.05
2019-04-25T16:51:02.034Z,23.85
2019-04-25T16:53:32.640Z,29.42
2019-04-25T16:56:08.379Z,22.00
2019-04-25T16:58:44.456Z,23.10
2019-04-25T17:01:15.380Z,42.38
2019-04-25T17:03:45.529Z,13.88
2019-04-25T17:06:18.581Z,26.40
2019-04-25T17:08:48.845Z,21.30
2019-04-25T17:11:19.280Z,27.67
2019-04-25T17:14:00.300Z,24.70
2019-04-25T17:19:12.781Z,121.87
2019-04-25T17:24:17.468Z,213.97
2019-04-25T17:26:49.863Z,103.65
2019-04-25T17:29:21.015Z,41.28
2019-04-25T17:31:55.915Z,67.60
2019-04-25T17:34:27.829Z,66.22
2019-04-25T17:37:00.881Z,75.40
2019-04-25T17:39:38.397Z,83.78
2019-04-25T17:42:13.216Z,76.90
2019-04-25T17:44:46.066Z,182.25
2019-04-25T17:47:17.533Z,265.27
2019-04-25T17:49:48.015Z,185.22
2019-04-25T17:52:18.123Z,204.32
2019-04-25T17:54:48.460Z,171.65
2019-04-25T17:57:21.217Z,158.63
2019-04-25T17:59:51.286Z,154.30
2019-04-25T18:02:21.989Z,147.90
2019-04-25T18:04:55.769Z,112.15
2019-04-25T18:07:29.183Z,98.58
2019-04-25T18:09:59.532Z,98.82
2019-04-25T18:15:15.359Z,98.15
2019-04-25T18:17:46.608Z,108.52
2019-04-25T18:20:49.098Z,120.30
2019-04-25T18:23:03.903Z,292.02
2019-04-25T18:26:11.399Z,229.72
2019-04-25T18:28:47.682Z,113.47
2019-04-25T18:31:18.000Z,179.95
2019-04-25T18:34:14.491Z,150.60
2019-04-25T18:36:55.564Z,173.43
2019-04-25T18:39:46.228Z,294.45
2019-04-25T18:42:36.535Z,255.65
2019-04-25T18:45:12.549Z,307.45
2019-04-25T18:48:09.564Z,268.80
2019-04-25T18:50:49.508Z,299.77
2019-04-25T18:53:31.808Z,307.97
2019-04-25T18:56:31.456Z,412.35
2019-04-25T18:59:26.164Z,543.33
2019-04-25T19:02:18.567Z,361.12
2019-04-25T19:07:50.075Z,310.95
2019-04-25T19:13:13.302Z,283.90
2019-04-25T19:15:49.771Z,163.45
2019-04-25T19:24:01.155Z,251.02
2019-04-25T19:26:35.158Z,245.75
2019-04-25T19:31:36.111Z,265.27
2019-04-25T19:34:06.102Z,252.57
2019-04-25T19:36:36.172Z,210.43
2019-04-25T19:39:07.337Z,231.43
2019-04-25T19:41:42.874Z,223.75
2019-04-25T19:44:14.547Z,190.57
2019-04-25T19:46:47.076Z,206.50
2019-04-25T19:49:27.596Z,173.87
2019-04-25T19:52:00.494Z,213.15
2019-04-25T19:54:33.857Z,199.82
2019-04-25T19:57:07.050Z,169.90
2019-04-25T19:59:50.697Z,164.90
2019-04-25T20:02:22.685Z,163.37
2019-04-25T20:05:07.823Z,160.65
2019-04-25T20:07:42.539Z,181.52
2019-04-25T20:10:29.642Z,198.57
2019-04-25T20:13:07.229Z,133.30
2019-04-25T20:15:37.601Z,162.70
2019-04-25T20:18:08.963Z,133.57
2019-04-25T20:20:41.991Z,124.58
2019-04-25T20:23:19.650Z,149.90
2019-04-25T20:25:51.458Z,124.62
2019-04-25T20:28:23.841Z,91.92
2019-04-25T20:31:00.330Z,90.25
2019-04-25T20:33:31.668Z,75.50
2019-04-25T20:36:02.138Z,86.45
2019-04-25T20:38:33.912Z,89.45
2019-04-25T20:41:07.428Z,135.30
2019-04-25T20:43:37.827Z,87.62
2019-04-25T20:46:08.262Z,97.78
2019-04-25T20:48:48.215Z,97.90
2019-04-25T20:51:27.165Z,118.25
2019-04-25T20:54:01.754Z,93.40
2019-04-25T20:56:38.772Z,93.03
2019-04-25T20:59:30.053Z,114.17
2019-04-25T21:02:05.899Z,92.15
2019-04-25T21:04:43.547Z,90.60
2019-04-25T21:07:18.377Z,110.20
2019-04-25T21:09:51.913Z,108.75
2019-04-25T21:12:28.889Z,85.15
2019-04-25T21:15:07.814Z,101.20
2019-04-25T21:17:45.386Z,91.72
2019-04-25T21:25:55.260Z,94.85
2019-04-25T21:28:27.692Z,89.00
2019-04-25T21:31:08.095Z,78.07
2019-04-25T21:34:25.390Z,84.70
2019-04-25T21:36:30.763Z,81.90
2019-04-25T21:39:13.171Z,79.92
2019-04-25T21:42:22.819Z,75.60
2019-04-25T21:45:00.492Z,82.40
2019-04-25T21:47:32.328Z,62.03
2019-04-25T21:50:21.820Z,72.45
2019-04-25T21:56:02.692Z,62.65
2019-04-25T21:58:50.905Z,59.58
2019-04-25T22:01:32.195Z,66.40
2019-04-25T22:04:05.309Z,65.28
2019-04-25T22:06:44.684Z,63.23
2019-04-25T22:09:25.136Z,48.55
2019-04-25T22:12:15.758Z,52.90
2019-04-25T22:15:10.609Z,53.60
2019-04-25T22:17:54.737Z,51.63
2019-04-25T22:20:48.455Z,70.67
2019-04-25T22:23:40.269Z,49.95
2019-04-25T22:26:26.088Z,58.98
2019-04-25T22:29:07.471Z,52.38
2019-04-25T22:32:04.077Z,49.45
2019-04-25T22:35:00.275Z,51.90
2019-04-25T22:37:50.576Z,49.63
2019-04-25T22:40:36.829Z,49.35
2019-04-25T22:43:13.730Z,61.80
2019-04-25T22:46:26.397Z,42.55
2019-04-25T22:51:43.146Z,50.73
2019-04-25T22:54:22.729Z,43.50
2019-04-25T22:57:01.798Z,51.42
2019-04-25T23:00:03.269Z,50.07
2019-04-25T23:02:37.002Z,41.18
2019-04-25T23:05:30.867Z,45.70
2019-04-25T23:11:18.206Z,54.63
2019-04-25T23:13:55.854Z,39.53
2019-04-25T23:16:27.480Z,45.55
2019-04-25T23:19:02.808Z,46.90
2019-04-25T23:25:12.076Z,45.33
2019-04-25T23:28:01.254Z,43.25
2019-04-25T23:30:52.634Z,48.55
2019-04-25T23:33:45.990Z,45.40
2019-04-25T23:36:24.813Z,51.28
2019-04-25T23:39:06.488Z,41.75
2019-04-25T23:41:43.204Z,53.83
2019-04-25T23:44:14.074Z,60.40
2019-04-25T23:49:33.314Z,58.30
2019-04-25T23:55:42.392Z,43.30
2019-04-25T23:58:07.095Z,62.48
